Time;durP1;ratioP1;P1;durP2;ratioP2;P2;SDS_P1;SDS_P2;PMS_P1;PMS_P2;Temp;Humidity;BMP_temperature;BMP_pressure;BME280_temperature;BME280_humidity;BME280_pressure;Samples;Min_cycle;Max_cycle;Signal;HPM_P1;HPM_P2
2022/04/01 00:02:17;;;;;;;2.47;0.90;;;1.20;99.90;;;;;;5122079;27;20429;-79
2022/04/01 00:04:43;;;;;;;3.30;1.20;;;1.20;99.90;;;;;;5110422;27;20088;-79
2022/04/01 00:07:09;;;;;;;8.48;1.33;;;1.30;99.90;;;;;;5097411;27;20122;-78
2022/04/01 00:09:34;;;;;;;2.05;1.23;;;1.40;99.90;;;;;;5092851;27;20077;-78
2022/04/01 00:12:00;;;;;;;3.72;1.02;;;1.40;99.90;;;;;;5103919;27;20538;-76
2022/04/01 00:14:26;;;;;;;5.10;1.23;;;1.40;99.90;;;;;;5111484;27;20404;-75
2022/04/01 00:16:52;;;;;;;8.18;1.75;;;1.50;99.90;;;;;;5110409;28;20039;-76
2022/04/01 00:19:20;;;;;;;2.72;1.20;;;1.40;99.90;;;;;;5115517;27;20028;-81
2022/04/01 00:21:46;;;;;;;1.90;1.15;;;1.40;99.90;;;;;;5097580;28;20050;-81
2022/04/01 00:24:12;;;;;;;4.80;1.20;;;1.40;99.90;;;;;;5109160;27;20085;-80
2022/04/01 00:26:37;;;;;;;3.40;1.10;;;1.40;99.90;;;;;;5111633;28;20062;-76
2022/04/01 00:29:14;;;;;;;1.20;1.10;;;1.50;99.90;;;;;;5113558;27;20031;-76
2022/04/01 00:31:45;;;;;;;2.85;1.23;;;1.40;99.90;;;;;;5093711;28;20047;-78
2022/04/01 00:34:17;;;;;;;1.98;1.30;;;1.40;99.90;;;;;;5109904;28;20055;-79
2022/04/01 00:36:44;;;;;;;3.67;1.20;;;1.40;99.90;;;;;;5094593;27;20043;-80
2022/04/01 00:39:11;;;;;;;2.22;1.15;;;1.30;99.90;;;;;;5111299;28;20069;-80
2022/04/01 00:41:37;;;;;;;2.00;0.95;;;1.40;99.90;;;;;;5131545;27;20362;-79
2022/04/01 00:44:22;;;;;;;2.75;1.10;;;1.30;99.90;;;;;;5109693;28;20035;-78
2022/04/01 00:46:55;;;;;;;3.55;1.50;;;1.30;99.90;;;;;;5112882;27;20035;-77
2022/04/01 00:49:21;;;;;;;2.85;1.08;;;1.30;99.90;;;;;;5110820;28;20313;-79
2022/04/01 00:51:52;;;;;;;3.13;1.40;;;1.30;99.90;;;;;;5114737;28;20034;-78
2022/04/01 00:54:18;;;;;;;4.18;1.10;;;1.30;99.90;;;;;;5107996;27;20096;-80
2022/04/01 00:56:44;;;;;;;6.68;1.60;;;1.30;99.90;;;;;;5090388;28;20031;-76
2022/04/01 00:59:11;;;;;;;3.90;1.20;;;1.30;99.90;;;;;;5092621;28;20073;-78
2022/04/01 01:01:37;;;;;;;2.28;1.17;;;1.90;99.90;;;;;;5111127;27;20096;-75
2022/04/01 01:04:04;;;;;;;5.03;1.35;;;1.30;99.90;;;;;;5105826;27;20042;-81
2022/04/01 01:06:40;;;;;;;1.88;1.30;;;1.30;99.90;;;;;;5089116;27;20107;-77
2022/04/01 01:09:06;;;;;;;3.00;1.00;;;1.30;99.90;;;;;;5083272;28;20038;-78
2022/04/01 01:11:32;;;;;;;5.05;1.20;;;1.20;99.90;;;;;;5102829;28;20039;-77
2022/04/01 01:13:59;;;;;;;4.10;1.55;;;1.30;99.90;;;;;;5085867;28;20055;-80
2022/04/01 01:16:25;;;;;;;3.85;1.23;;;1.20;99.90;;;;;;5110055;28;20506;-80
2022/04/01 01:19:20;;;;;;;4.75;1.58;;;1.30;99.90;;;;;;5110969;28;20043;-78
2022/04/01 01:21:50;;;;;;;2.58;1.27;;;1.40;99.90;;;;;;5012417;28;20045;-79
2022/04/01 01:24:16;;;;;;;2.08;0.85;;;1.30;99.90;;;;;;5015191;28;20451;-78
2022/04/01 01:26:48;;;;;;;3.80;1.58;;;1.60;99.90;;;;;;4997724;28;20045;-81
2022/04/01 01:29:31;;;;;;;3.63;1.00;;;1.40;99.90;;;;;;5011036;28;20041;-78
2022/04/01 01:31:59;;;;;;;5.10;1.35;;;1.50;99.90;;;;;;5023618;28;20054;-78
2022/04/01 01:34:25;;;;;;;3.08;1.23;;;1.50;99.90;;;;;;5031206;28;20485;-81
2022/04/01 01:36:52;;;;;;;3.20;1.30;;;1.60;99.90;;;;;;5022732;28;20055;-77
2022/04/01 01:39:19;;;;;;;3.58;1.50;;;1.40;99.90;;;;;;5021291;28;20160;-79
2022/04/01 01:41:46;;;;;;;4.72;1.58;;;1.50;99.90;;;;;;5023891;28;20042;-80
2022/04/01 01:44:13;;;;;;;3.45;1.65;;;1.60;99.90;;;;;;5029339;28;20037;-77
2022/04/01 01:46:39;;;;;;;2.67;1.25;;;1.60;99.90;;;;;;5018616;28;20041;-76
2022/04/01 01:49:05;;;;;;;3.03;1.20;;;1.70;99.90;;;;;;5034763;28;20148;-80
2022/04/01 01:57:00;;;;;;;3.83;1.33;;;1.60;99.90;;;;;;5029607;28;20041;-78
2022/04/01 01:59:26;;;;;;;3.85;1.42;;;1.60;99.90;;;;;;5114299;27;20046;-78
2022/04/01 02:01:52;;;;;;;4.07;1.17;;;1.60;99.90;;;;;;5115209;27;20035;-77
2022/04/01 02:04:22;;;;;;;6.57;1.25;;;1.70;99.90;;;;;;5099717;27;20043;-80
2022/04/01 02:06:49;;;;;;;6.22;1.20;;;1.60;99.90;;;;;;5115453;27;20035;-79
2022/04/01 02:09:15;;;;;;;3.75;1.38;;;1.70;99.90;;;;;;5113677;27;20035;-80
2022/04/01 02:11:41;;;;;;;4.38;1.25;;;1.80;99.90;;;;;;5098074;27;20561;-81
2022/04/01 02:14:07;;;;;;;4.43;1.52;;;1.80;99.90;;;;;;5112978;27;20134;-76
2022/04/01 02:16:33;;;;;;;6.35;1.15;;;1.80;99.90;;;;;;5112719;27;20039;-77
2022/04/01 02:18:59;;;;;;;3.17;1.10;;;1.80;99.90;;;;;;5096335;27;20378;-79
2022/04/01 02:21:25;;;;;;;2.15;1.10;;;1.90;99.90;;;;;;5115355;27;20047;-82
2022/04/01 02:23:51;;;;;;;4.30;1.20;;;2.40;99.90;;;;;;5112319;27;20470;-80
2022/04/01 02:26:17;;;;;;;5.50;1.50;;;1.80;99.90;;;;;;5113447;27;20035;-80
2022/04/01 02:28:43;;;;;;;3.67;1.10;;;1.80;99.90;;;;;;5115012;27;20032;-83
2022/04/01 02:31:11;;;;;;;5.00;1.27;;;1.80;99.90;;;;;;5096444;27;20066;-76
2022/04/01 02:33:37;;;;;;;3.28;1.23;;;1.80;99.90;;;;;;5114231;27;20348;-82
2022/04/01 02:36:06;;;;;;;2.58;1.20;;;1.70;99.90;;;;;;5113429;27;20051;-76
2022/04/01 02:38:32;;;;;;;8.00;1.23;;;1.70;99.90;;;;;;5109491;27;20121;-78
2022/04/01 02:40:58;;;;;;;3.40;1.42;;;1.70;99.90;;;;;;5097667;27;20180;-78
2022/04/01 02:43:25;;;;;;;3.55;1.45;;;1.70;99.90;;;;;;5114466;27;20051;-80
2022/04/01 02:45:51;;;;;;;6.15;1.17;;;1.70;99.90;;;;;;5111284;27;20035;-78
2022/04/01 02:48:19;;;;;;;4.78;1.40;;;1.70;99.90;;;;;;5114151;27;20046;-80
2022/04/01 02:50:46;;;;;;;5.63;1.38;;;1.70;99.90;;;;;;5095686;27;20043;-80
2022/04/01 02:53:13;;;;;;;2.72;1.10;;;1.80;99.90;;;;;;5096555;27;20087;-76
2022/04/01 02:55:40;;;;;;;4.03;1.20;;;1.80;99.90;;;;;;5097269;27;20046;-78
2022/04/01 02:58:06;;;;;;;4.97;1.00;;;1.80;99.90;;;;;;5113042;27;20172;-77
2022/04/01 03:00:37;;;;;;;12.70;1.42;;;1.80;99.90;;;;;;5095856;27;20126;-79
2022/04/01 03:03:06;;;;;;;8.25;1.50;;;1.70;99.90;;;;;;5092357;27;20035;-78
2022/04/01 03:05:42;;;;;;;4.47;1.50;;;1.90;99.90;;;;;;5111218;27;20046;-77
2022/04/01 03:08:09;;;;;;;2.65;1.10;;;1.70;99.90;;;;;;5092564;27;20062;-79
2022/04/01 03:10:37;;;;;;;2.78;1.30;;;1.70;99.90;;;;;;5107118;27;20039;-81
2022/04/01 03:13:04;;;;;;;2.70;1.13;;;1.80;99.90;;;;;;5110605;27;22281;-76
2022/04/01 03:15:30;;;;;;;6.90;1.30;;;1.70;99.90;;;;;;5110431;27;20070;-78
2022/04/01 03:17:57;;;;;;;0.95;0.68;;;1.80;99.90;;;;;;5108349;27;20077;-79
2022/04/01 03:20:23;;;;;;;2.72;0.85;;;1.80;99.90;;;;;;5110800;27;20051;-78
2022/04/01 03:22:50;;;;;;;2.08;0.90;;;1.70;99.90;;;;;;5113914;27;20039;-81
2022/04/01 03:25:18;;;;;;;2.92;1.17;;;1.70;99.90;;;;;;5096303;27;20034;-76
2022/04/01 03:27:53;;;;;;;4.43;1.20;;;1.70;99.90;;;;;;5111069;27;20066;-78
2022/04/01 03:30:19;;;;;;;2.00;0.80;;;1.70;99.90;;;;;;5113039;27;20064;-79
2022/04/01 03:32:48;;;;;;;2.30;0.90;;;1.70;99.90;;;;;;5112563;27;20503;-80
2022/04/01 03:35:17;;;;;;;1.88;0.98;;;1.90;99.90;;;;;;5112284;27;20055;-77
2022/04/01 03:37:49;;;;;;;4.22;1.13;;;1.80;99.90;;;;;;5113545;27;20054;-76
2022/04/01 03:40:15;;;;;;;3.33;1.20;;;1.80;99.90;;;;;;5111967;27;20031;-76
2022/04/01 03:42:45;;;;;;;4.30;0.98;;;1.80;99.90;;;;;;5095736;27;20095;-78
2022/04/01 03:45:12;;;;;;;4.20;1.00;;;1.80;99.90;;;;;;5097536;27;20454;-78
2022/04/01 03:47:49;;;;;;;7.53;1.20;;;1.80;99.90;;;;;;5112085;27;20386;-78
2022/04/01 03:50:19;;;;;;;7.57;1.70;;;1.80;99.90;;;;;;5110175;27;20122;-80
2022/04/01 03:52:47;;;;;;;5.20;1.17;;;1.80;99.90;;;;;;5116381;27;20058;-77
2022/04/01 03:55:13;;;;;;;6.55;1.02;;;1.70;99.90;;;;;;5110146;27;20043;-76
2022/04/01 03:57:40;;;;;;;4.57;1.00;;;1.80;99.90;;;;;;5110006;27;20085;-80
2022/04/01 04:00:14;;;;;;;4.78;1.33;;;1.90;99.90;;;;;;5094351;27;20039;-78
2022/04/01 04:02:41;;;;;;;6.30;1.42;;;1.90;99.90;;;;;;5112136;27;20403;-75
2022/04/01 04:05:09;;;;;;;7.57;1.58;;;1.90;99.90;;;;;;5129231;27;20034;-77
2022/04/01 04:07:35;;;;;;;1.77;0.70;;;1.80;99.90;;;;;;5109874;27;20039;-76
2022/04/01 04:10:03;;;;;;;7.68;1.30;;;1.90;99.90;;;;;;5100201;27;20051;-75
2022/04/01 04:12:30;;;;;;;2.42;1.23;;;1.90;99.90;;;;;;5107732;27;20043;-79
2022/04/01 04:14:57;;;;;;;6.10;1.10;;;2.00;99.90;;;;;;5100403;27;20039;-77
2022/04/01 04:17:47;;;;;;;2.78;0.90;;;1.90;99.90;;;;;;5098158;28;20039;-76
2022/04/01 04:20:18;;;;;;;4.25;1.20;;;1.90;99.90;;;;;;5100335;28;20114;-81
2022/04/01 04:23:13;;;;;;;5.35;1.00;;;2.00;99.90;;;;;;5114109;27;20358;-78
2022/04/01 04:25:42;;;;;;;2.53;1.25;;;2.00;99.90;;;;;;5114619;27;20053;-75
2022/04/01 04:28:18;;;;;;;1.90;0.80;;;2.00;99.90;;;;;;5117310;28;20189;-77
2022/04/01 04:30:54;;;;;;;3.85;1.27;;;2.00;99.90;;;;;;5101186;27;20051;-79
2022/04/01 04:33:22;;;;;;;4.38;1.00;;;2.00;99.90;;;;;;5115678;27;20119;-77
2022/04/01 04:35:51;;;;;;;6.53;1.38;;;2.00;99.90;;;;;;5119153;28;20147;-79
2022/04/01 04:38:20;;;;;;;7.30;1.60;;;2.00;99.90;;;;;;5110086;28;20132;-81
2022/04/01 04:40:46;;;;;;;2.85;1.20;;;2.10;99.90;;;;;;5091008;28;20758;-79
2022/04/01 04:43:18;;;;;;;5.65;1.05;;;2.00;99.90;;;;;;5086723;28;20040;-79
2022/04/01 04:45:49;;;;;;;6.75;1.23;;;1.90;99.90;;;;;;5107143;28;20042;-77
2022/04/01 04:48:16;;;;;;;5.18;1.10;;;1.90;99.90;;;;;;5090255;28;20031;-80
2022/04/01 04:50:47;;;;;;;3.55;1.00;;;2.00;99.90;;;;;;5108398;28;20083;-80
2022/04/01 04:53:13;;;;;;;1.35;0.75;;;1.90;99.90;;;;;;5089998;28;20075;-78
2022/04/01 04:55:41;;;;;;;3.80;1.10;;;2.10;99.90;;;;;;5109278;28;20123;-77
2022/04/01 04:58:09;;;;;;;2.53;1.13;;;1.90;99.90;;;;;;5090401;28;20046;-77
2022/04/01 05:00:39;;;;;;;5.53;1.25;;;2.00;99.90;;;;;;5107590;28;20031;-76
2022/04/01 05:03:47;;;;;;;5.28;1.10;;;2.00;99.90;;;;;;5111349;28;20063;-77
2022/04/01 05:06:17;;;;;;;4.88;1.08;;;2.00;99.90;;;;;;4989190;28;20421;-80
2022/04/01 05:09:00;;;;;;;3.65;1.10;;;2.00;99.90;;;;;;4987183;28;20066;-78
2022/04/01 05:11:35;;;;;;;6.15;0.90;;;2.30;99.90;;;;;;4991508;28;20054;-78
2022/04/01 05:14:24;;;;;;;5.43;1.02;;;2.90;99.90;;;;;;4991721;28;20096;-77
2022/04/01 05:17:01;;;;;;;2.50;1.17;;;2.00;99.90;;;;;;4975480;28;20080;-79
2022/04/01 05:19:28;;;;;;;6.25;1.17;;;2.00;99.90;;;;;;5008682;28;20458;-76
2022/04/01 05:22:04;;;;;;;2.63;1.10;;;2.00;99.90;;;;;;4991053;28;20050;-78
2022/04/01 05:24:52;;;;;;;6.30;1.30;;;2.00;99.90;;;;;;4991098;28;20045;-78
2022/04/01 05:27:21;;;;;;;5.40;1.30;;;2.00;99.90;;;;;;4992923;28;20060;-77
2022/04/01 05:30:05;;;;;;;2.05;1.10;;;2.10;99.90;;;;;;4992565;28;20053;-83
2022/04/01 05:32:33;;;;;;;5.38;1.33;;;2.00;99.90;;;;;;4991228;28;20042;-78
2022/04/01 05:35:00;;;;;;;3.13;0.95;;;2.00;99.90;;;;;;4991492;28;20116;-80
2022/04/01 05:37:28;;;;;;;4.25;1.00;;;2.10;99.90;;;;;;4990154;28;20037;-80
2022/04/01 05:39:55;;;;;;;2.78;0.88;;;2.20;99.90;;;;;;4986624;28;20165;-79
2022/04/01 05:42:22;;;;;;;3.25;1.10;;;2.10;99.90;;;;;;5021440;28;20193;-79
2022/04/01 05:44:50;;;;;;;2.88;1.00;;;2.00;99.90;;;;;;5078320;28;20040;-79
2022/04/01 05:47:16;;;;;;;6.82;1.20;;;2.00;99.90;;;;;;5066128;28;20071;-78
2022/04/01 05:49:45;;;;;;;1.83;1.08;;;2.10;99.90;;;;;;5084682;28;20044;-77
2022/04/01 05:52:12;;;;;;;5.55;1.30;;;2.10;99.90;;;;;;5088006;28;20252;-85
2022/04/01 05:54:43;;;;;;;5.97;1.27;;;2.10;99.90;;;;;;5089396;28;20179;-79
2022/04/01 05:57:10;;;;;;;3.30;1.00;;;2.10;99.90;;;;;;5085783;28;20095;-80
2022/04/01 05:59:36;;;;;;;7.50;1.90;;;3.00;99.90;;;;;;5083342;28;20142;-77
2022/04/01 06:02:06;;;;;;;6.57;1.38;;;2.10;99.90;;;;;;5084097;28;20193;-82
2022/04/01 06:04:51;;;;;;;5.25;1.10;;;2.00;99.90;;;;;;5087804;28;20384;-79
2022/04/01 06:07:35;;;;;;;4.20;1.02;;;2.20;99.90;;;;;;5084457;28;20067;-78
2022/04/01 06:10:23;;;;;;;4.93;1.10;;;2.10;99.90;;;;;;5085072;28;20044;-75
2022/04/01 06:13:14;;;;;;;5.25;1.25;;;2.20;99.90;;;;;;5070441;28;20035;-78
2022/04/01 06:15:45;;;;;;;3.90;1.33;;;2.20;99.90;;;;;;5076201;28;20037;-82
2022/04/01 06:18:10;;;;;;;5.47;1.10;;;2.10;99.90;;;;;;5088507;28;20124;-75
2022/04/01 06:20:40;;;;;;;4.55;1.30;;;2.10;99.90;;;;;;5084945;28;20086;-78
2022/04/01 06:23:35;;;;;;;3.42;1.30;;;2.20;99.90;;;;;;5081675;28;20055;-80
2022/04/01 06:26:01;;;;;;;3.22;1.35;;;2.20;99.90;;;;;;5085676;28;20048;-78
2022/04/01 06:28:34;;;;;;;3.25;1.20;;;2.20;99.90;;;;;;5088532;28;20036;-77
2022/04/01 06:31:05;;;;;;;3.13;1.27;;;2.20;99.90;;;;;;5083778;28;20057;-75
2022/04/01 06:33:49;;;;;;;4.25;1.38;;;2.20;99.90;;;;;;5089218;28;20048;-77
2022/04/01 06:36:23;;;;;;;4.80;1.10;;;2.20;99.90;;;;;;5128401;27;20472;-79
2022/04/01 06:38:59;;;;;;;5.75;1.30;;;2.20;99.90;;;;;;5114142;27;20047;-77
2022/04/01 06:41:31;;;;;;;5.43;1.33;;;2.20;99.90;;;;;;5112255;27;20078;-76
2022/04/01 06:43:57;;;;;;;3.72;1.23;;;2.30;99.90;;;;;;5106866;27;20039;-77
2022/04/01 06:46:22;;;;;;;6.05;1.50;;;2.30;99.90;;;;;;5108832;27;20127;-76
2022/04/01 06:48:48;;;;;;;5.32;1.20;;;2.40;99.90;;;;;;5100535;27;20112;-74
2022/04/01 06:51:14;;;;;;;3.92;1.25;;;2.40;99.90;;;;;;5088434;27;20373;-76
2022/04/01 06:53:41;;;;;;;2.72;1.25;;;2.50;99.90;;;;;;5107597;27;20043;-75
2022/04/01 06:56:09;;;;;;;4.63;1.23;;;2.90;99.90;;;;;;5122808;27;20058;-79
2022/04/01 06:58:35;;;;;;;4.78;1.00;;;2.50;99.90;;;;;;5109726;27;20066;-74
2022/04/01 07:01:02;;;;;;;3.83;1.13;;;2.50;99.90;;;;;;5109596;27;20035;-76
2022/04/01 07:03:28;;;;;;;2.33;1.10;;;2.50;99.90;;;;;;5109648;27;20039;-82
2022/04/01 07:05:55;;;;;;;4.38;1.23;;;2.60;99.90;;;;;;5111211;27;20035;-75
2022/04/01 07:08:21;;;;;;;1.52;0.85;;;2.60;99.90;;;;;;5113490;27;20072;-78
2022/04/01 07:10:48;;;;;;;3.25;1.00;;;2.60;99.90;;;;;;5106153;27;20075;-76
2022/04/01 07:13:14;;;;;;;2.13;0.70;;;2.60;99.90;;;;;;5111660;27;20062;-78
2022/04/01 07:15:41;;;;;;;2.65;0.90;;;2.60;99.90;;;;;;5110688;27;20089;-72
2022/04/01 07:18:07;;;;;;;1.92;0.70;;;2.60;99.90;;;;;;5109738;27;20035;-75
2022/04/01 07:20:33;;;;;;;5.63;0.90;;;2.60;99.90;;;;;;5108959;27;20172;-73
2022/04/01 07:22:59;;;;;;;2.97;0.70;;;2.60;99.90;;;;;;5110473;27;20395;-75
2022/04/01 07:25:25;;;;;;;2.60;0.85;;;2.50;99.90;;;;;;5092701;27;20043;-73
2022/04/01 07:27:53;;;;;;;1.63;0.85;;;2.60;99.90;;;;;;5109648;27;20070;-79
2022/04/01 07:30:19;;;;;;;4.38;1.00;;;2.60;99.90;;;;;;5107839;27;20529;-76
2022/04/01 07:32:45;;;;;;;7.75;0.98;;;2.70;99.90;;;;;;5092791;27;20089;-79
2022/04/01 07:35:14;;;;;;;3.25;1.25;;;2.60;99.90;;;;;;5108849;27;20070;-76
2022/04/01 07:37:42;;;;;;;4.25;1.05;;;2.60;99.90;;;;;;5113115;27;20043;-76
2022/04/01 07:40:09;;;;;;;1.50;0.80;;;2.60;99.90;;;;;;5112316;27;20042;-76
2022/04/01 07:42:35;;;;;;;3.97;0.80;;;2.60;99.90;;;;;;5110280;27;20439;-75
2022/04/01 07:45:05;;;;;;;1.20;0.65;;;2.60;99.90;;;;;;5110081;27;20095;-77
2022/04/01 07:47:35;;;;;;;4.25;1.10;;;2.50;99.90;;;;;;5126641;27;20474;-77
2022/04/01 07:50:03;;;;;;;8.20;1.45;;;2.50;99.90;;;;;;5108351;27;20114;-76
2022/04/01 07:52:29;;;;;;;2.60;0.90;;;2.50;99.90;;;;;;5108305;27;20199;-73
2022/04/01 07:54:58;;;;;;;3.30;1.25;;;2.40;99.90;;;;;;5109173;27;20094;-81
2022/04/01 07:57:24;;;;;;;4.82;1.42;;;2.50;99.90;;;;;;5093340;27;20123;-73
2022/04/01 07:59:50;;;;;;;2.92;1.15;;;2.40;99.90;;;;;;5109752;27;20138;-75
2022/04/01 08:02:16;;;;;;;1.73;0.80;;;2.40;99.90;;;;;;5092234;27;20115;-78
2022/04/01 08:04:42;;;;;;;1.90;1.33;;;2.70;99.90;;;;;;5095195;27;20047;-78
2022/04/01 08:07:08;;;;;;;3.33;1.20;;;2.50;99.90;;;;;;5109916;27;20054;-75
2022/04/01 08:09:34;;;;;;;6.22;1.40;;;2.40;99.90;;;;;;5112674;27;20474;-77
2022/04/01 08:12:03;;;;;;;1.42;0.77;;;2.30;99.90;;;;;;5111689;27;20043;-74
2022/04/01 08:14:29;;;;;;;4.97;1.30;;;2.50;99.90;;;;;;5111234;27;20042;-74
2022/04/01 08:16:56;;;;;;;3.13;1.60;;;2.40;99.90;;;;;;5106604;27;20708;-74
2022/04/01 08:19:22;;;;;;;2.00;1.13;;;2.40;99.90;;;;;;5112903;27;20047;-77
2022/04/01 08:21:49;;;;;;;3.92;1.20;;;2.30;99.90;;;;;;5108126;27;20135;-75
2022/04/01 08:24:16;;;;;;;4.10;1.23;;;2.30;99.90;;;;;;5101775;28;20634;-76
2022/04/01 08:26:41;;;;;;;2.30;1.10;;;2.40;99.90;;;;;;5109352;28;20023;-77
2022/04/01 08:29:07;;;;;;;3.63;1.30;;;2.40;99.90;;;;;;5110189;28;20443;-75
2022/04/01 08:31:33;;;;;;;4.68;1.52;;;2.40;99.90;;;;;;5110782;28;20039;-75
2022/04/01 08:33:59;;;;;;;4.00;1.02;;;2.40;99.90;;;;;;5110914;28;20058;-73
2022/04/01 08:36:26;;;;;;;3.30;1.52;;;2.50;99.90;;;;;;5108188;28;20051;-75
2022/04/01 08:38:52;;;;;;;2.30;1.08;;;2.60;99.90;;;;;;5111795;28;20179;-77
2022/04/01 08:41:20;;;;;;;3.53;1.60;;;2.50;99.90;;;;;;5108542;28;20047;-78
2022/04/01 08:43:47;;;;;;;5.03;1.50;;;2.60;99.90;;;;;;5112099;27;20125;-74
2022/04/01 08:46:14;;;;;;;6.00;1.58;;;2.70;99.90;;;;;;5114283;27;20441;-75
2022/04/01 08:48:41;;;;;;;3.22;1.30;;;2.70;99.90;;;;;;5095542;27;20027;-74
2022/04/01 08:51:07;;;;;;;3.15;1.40;;;2.70;99.90;;;;;;5112739;27;20402;-74
2022/04/01 08:53:38;;;;;;;3.47;1.30;;;2.70;99.90;;;;;;5114470;27;20047;-76
2022/04/01 08:56:05;;;;;;;1.90;1.30;;;2.70;99.90;;;;;;5119325;27;20168;-76
2022/04/01 08:58:33;;;;;;;2.88;1.23;;;2.90;99.90;;;;;;5113942;27;20374;-75
2022/04/01 09:00:59;;;;;;;3.63;1.50;;;2.80;99.90;;;;;;5114384;27;20051;-76
2022/04/01 09:03:27;;;;;;;3.80;1.33;;;2.80;99.90;;;;;;5115474;27;20047;-80
2022/04/01 09:05:56;;;;;;;3.45;1.05;;;3.00;99.90;;;;;;5117426;27;20081;-77
2022/04/01 09:08:29;;;;;;;4.25;1.60;;;2.90;99.90;;;;;;5090028;27;20042;-75
2022/04/01 09:11:01;;;;;;;2.10;1.20;;;3.10;99.90;;;;;;5096609;27;20051;-83
2022/04/01 09:13:51;;;;;;;2.30;1.33;;;3.10;99.90;;;;;;5111632;27;20039;-76
2022/04/01 09:16:38;;;;;;;2.05;1.15;;;3.00;99.90;;;;;;5112016;27;20096;-79
2022/04/01 09:19:06;;;;;;;3.03;1.50;;;3.00;99.90;;;;;;5096235;27;20054;-75
2022/04/01 09:21:39;;;;;;;3.38;1.15;;;3.10;99.90;;;;;;5097372;27;20035;-76
2022/04/01 09:24:05;;;;;;;5.55;1.65;;;3.10;99.90;;;;;;5099614;27;20191;-77
2022/04/01 09:26:32;;;;;;;2.92;1.40;;;3.10;99.90;;;;;;5115651;27;20039;-75
2022/04/01 09:28:59;;;;;;;4.25;1.83;;;3.10;99.90;;;;;;5098526;27;20506;-74
2022/04/01 09:31:29;;;;;;;4.03;1.80;;;3.30;99.90;;;;;;5133840;27;20065;-77
2022/04/01 09:33:55;;;;;;;4.88;1.85;;;3.40;99.90;;;;;;5116191;27;20134;-77
2022/04/01 09:36:27;;;;;;;4.03;1.67;;;3.50;99.90;;;;;;5097801;27;20134;-76
2022/04/01 09:38:53;;;;;;;6.00;1.95;;;3.50;99.90;;;;;;5110671;27;20055;-78
2022/04/01 09:41:19;;;;;;;4.03;1.15;;;3.50;99.90;;;;;;5096908;27;20031;-80
2022/04/01 09:43:46;;;;;;;1.67;1.30;;;3.50;99.90;;;;;;5114609;27;20045;-75
2022/04/01 09:46:26;;;;;;;6.05;1.80;;;3.40;99.90;;;;;;5096240;27;20454;-78
2022/04/01 09:48:57;;;;;;;2.33;1.40;;;3.50;99.90;;;;;;5113975;27;20122;-78
2022/04/01 09:51:24;;;;;;;5.28;1.70;;;3.50;99.90;;;;;;5097294;27;20105;-77
2022/04/01 09:53:54;;;;;;;4.20;1.50;;;3.70;99.90;;;;;;5113564;28;20130;-80
2022/04/01 09:56:39;;;;;;;2.75;1.35;;;3.70;99.90;;;;;;5114822;27;20079;-81
2022/04/01 09:59:05;;;;;;;2.97;1.60;;;3.70;99.90;;;;;;5114490;27;20039;-80
2022/04/01 10:01:33;;;;;;;4.45;1.30;;;3.80;99.90;;;;;;5115327;27;20869;-79
2022/04/01 10:03:59;;;;;;;6.30;1.60;;;3.90;99.90;;;;;;5114797;27;20035;-80
2022/04/01 10:06:26;;;;;;;4.05;1.35;;;4.10;99.90;;;;;;5116094;27;20126;-82
2022/04/01 10:08:54;;;;;;;4.15;1.55;;;4.00;99.90;;;;;;5133960;27;20043;-80
2022/04/01 10:11:22;;;;;;;5.05;1.42;;;4.10;99.90;;;;;;5094865;27;20043;-80
2022/04/01 10:13:50;;;;;;;3.10;1.60;;;4.10;99.90;;;;;;5112981;27;20047;-77
2022/04/01 10:16:16;;;;;;;3.05;1.80;;;4.20;99.90;;;;;;5097790;27;20055;-75
2022/04/01 10:18:42;;;;;;;4.18;1.63;;;4.30;99.90;;;;;;5096798;27;20054;-74
2022/04/01 10:21:09;;;;;;;3.28;1.40;;;4.50;99.90;;;;;;5134726;27;20039;-78
2022/04/01 10:23:39;;;;;;;4.43;1.67;;;4.50;99.90;;;;;;5115332;27;20088;-76
2022/04/01 10:26:13;;;;;;;2.28;1.42;;;4.60;99.90;;;;;;5090476;27;20059;-84
2022/04/01 10:28:43;;;;;;;2.92;1.30;;;4.60;99.90;;;;;;5129238;27;20035;-78
2022/04/01 10:31:13;;;;;;;4.88;1.05;;;4.50;99.90;;;;;;5103298;27;20115;-78
2022/04/01 10:33:39;;;;;;;1.95;1.05;;;4.50;99.90;;;;;;5093452;27;20031;-80
2022/04/01 10:36:16;;;;;;;2.17;1.30;;;4.60;99.90;;;;;;5108544;27;20055;-79
2022/04/01 10:38:42;;;;;;;6.13;1.70;;;4.70;99.90;;;;;;5111826;27;20175;-79
2022/04/01 10:41:12;;;;;;;4.85;1.90;;;4.90;99.90;;;;;;5108568;27;20118;-79
2022/04/01 10:43:46;;;;;;;5.40;1.73;;;4.80;99.90;;;;;;5111225;27;20176;-80
2022/04/01 10:46:17;;;;;;;4.35;1.52;;;5.00;99.90;;;;;;5093060;27;20062;-81
2022/04/01 10:52:21;;;;;;;8.70;1.90;;;5.10;99.90;;;;;;5111375;27;20044;-79
2022/04/01 10:55:09;;;;;;;5.80;1.98;;;5.30;99.90;;;;;;5110139;27;20039;-78
2022/04/01 10:58:06;;;;;;;3.13;1.52;;;5.10;99.90;;;;;;5094453;27;20031;-78
2022/04/01 11:00:34;;;;;;;3.80;1.55;;;5.10;99.90;;;;;;5096743;27;20049;-81
2022/04/01 11:03:21;;;;;;;7.35;3.00;;;5.20;99.90;;;;;;5113384;27;20067;-75
2022/04/01 11:05:47;;;;;;;5.85;1.83;;;5.30;99.90;;;;;;5095033;27;20391;-77
2022/04/01 11:08:20;;;;;;;2.63;1.55;;;5.40;99.90;;;;;;5119535;27;20036;-76
2022/04/01 11:11:06;;;;;;;4.20;1.60;;;5.30;99.90;;;;;;5113077;27;20051;-76
2022/04/01 11:13:33;;;;;;;5.88;2.10;;;5.30;99.90;;;;;;5097430;27;20128;-76
2022/04/01 11:16:20;;;;;;;5.40;2.00;;;5.30;99.90;;;;;;5117254;27;20035;-76
2022/04/01 11:19:25;;;;;;;5.03;2.10;;;5.30;99.90;;;;;;5102122;27;20439;-76
2022/04/01 11:21:51;;;;;;;2.10;1.50;;;5.30;99.90;;;;;;5095257;27;20066;-76
2022/04/01 11:24:22;;;;;;;3.90;1.80;;;5.40;99.90;;;;;;5118705;27;20039;-78
2022/04/01 11:26:48;;;;;;;5.90;1.88;;;5.50;99.90;;;;;;5120031;27;20849;-77
2022/04/01 11:29:19;;;;;;;8.57;2.15;;;5.50;99.90;;;;;;5091497;27;20043;-76
2022/04/01 11:31:45;;;;;;;6.03;1.50;;;5.60;99.90;;;;;;5108545;27;20043;-77
2022/04/01 11:34:11;;;;;;;5.45;1.52;;;5.70;99.90;;;;;;5095663;27;20075;-75
2022/04/01 11:36:37;;;;;;;2.80;1.25;;;5.70;99.90;;;;;;5110340;27;20042;-76
2022/04/01 11:39:05;;;;;;;3.35;1.40;;;5.80;99.90;;;;;;5110667;27;20108;-78
2022/04/01 11:41:43;;;;;;;5.75;1.30;;;5.90;99.90;;;;;;5132806;27;20077;-76
2022/04/01 11:44:08;;;;;;;2.78;1.17;;;5.80;99.90;;;;;;5114213;27;20034;-77
2022/04/01 11:46:36;;;;;;;2.47;0.82;;;6.10;99.90;;;;;;5110243;27;20035;-75
2022/04/01 11:49:02;;;;;;;1.25;0.65;;;6.10;99.90;;;;;;5112327;27;20418;-78
2022/04/01 11:51:28;;;;;;;6.18;0.95;;;6.20;99.90;;;;;;5095900;27;20073;-75
2022/04/01 11:53:56;;;;;;;3.28;0.77;;;5.90;99.90;;;;;;5111519;27;20043;-78
2022/04/01 11:56:25;;;;;;;2.53;1.05;;;6.10;99.90;;;;;;5094505;27;20107;-79
2022/04/01 11:58:52;;;;;;;2.53;1.10;;;5.90;99.90;;;;;;5097277;27;20122;-79
2022/04/01 12:01:19;;;;;;;2.33;0.90;;;5.90;99.90;;;;;;5100836;27;20598;-78
2022/04/01 12:03:45;;;;;;;2.10;1.10;;;5.90;99.90;;;;;;5100395;27;20122;-78
2022/04/01 12:08:55;;;;;;;1.08;0.93;;;5.50;99.90;;;;;;5110040;27;20513;-74
2022/04/01 12:11:20;;;;;;;2.20;0.88;;;5.50;99.90;;;;;;5113334;27;20074;-76
2022/04/01 12:13:55;;;;;;;2.20;1.00;;;5.50;99.90;;;;;;5110294;27;20055;-77
2022/04/01 12:16:21;;;;;;;1.25;0.68;;;5.40;99.90;;;;;;5109182;27;20066;-74
2022/04/01 12:18:50;;;;;;;3.83;1.20;;;5.40;99.90;;;;;;5089958;27;20047;-76
2022/04/01 12:21:21;;;;;;;1.83;1.15;;;5.20;99.90;;;;;;5126858;27;20039;-78
2022/04/01 12:23:48;;;;;;;4.15;1.20;;;5.40;99.90;;;;;;5088304;28;20039;-76
2022/04/01 12:26:17;;;;;;;1.98;1.20;;;5.50;99.90;;;;;;5110349;27;20080;-76
2022/04/01 12:28:45;;;;;;;2.20;1.35;;;5.30;99.90;;;;;;5112587;27;20032;-77
2022/04/01 12:31:22;;;;;;;3.20;1.25;;;5.30;99.90;;;;;;5109304;27;20138;-78
2022/04/01 12:33:51;;;;;;;2.67;1.02;;;5.10;99.90;;;;;;5110222;27;20498;-77
2022/04/01 12:36:31;;;;;;;4.70;1.25;;;5.10;99.90;;;;;;5091114;28;20043;-77
2022/04/01 12:39:04;;;;;;;7.55;1.55;;;5.10;99.90;;;;;;5093623;28;20067;-76
2022/04/01 12:41:30;;;;;;;4.18;1.40;;;5.10;99.90;;;;;;5107510;28;20035;-75
2022/04/01 12:43:59;;;;;;;3.17;1.30;;;5.10;99.90;;;;;;5109412;28;20055;-80
2022/04/01 12:46:30;;;;;;;2.50;1.30;;;5.30;99.90;;;;;;5092593;28;20076;-81
2022/04/01 12:49:20;;;;;;;1.98;0.90;;;5.60;99.90;;;;;;5109341;28;20036;-79
2022/04/01 12:51:52;;;;;;;7.88;1.17;;;5.40;99.90;;;;;;5096058;28;20135;-80
2022/04/01 12:54:39;;;;;;;2.65;1.13;;;5.30;99.90;;;;;;5106712;28;20050;-78
2022/04/01 12:57:11;;;;;;;3.28;1.10;;;5.40;99.90;;;;;;5102291;28;20410;-78
2022/04/01 12:59:40;;;;;;;2.55;1.00;;;5.30;99.90;;;;;;5091102;28;20048;-76
2022/04/01 13:02:08;;;;;;;3.00;0.75;;;5.40;99.90;;;;;;5106978;28;20044;-81
2022/04/01 13:04:45;;;;;;;3.13;1.02;;;5.50;99.90;;;;;;5100683;28;20128;-77
2022/04/01 13:07:28;;;;;;;3.67;1.48;;;5.60;99.90;;;;;;5103048;28;20059;-75
2022/04/01 13:09:58;;;;;;;4.13;1.30;;;5.60;99.90;;;;;;5106763;28;20085;-79
2022/04/01 13:12:38;;;;;;;1.40;0.80;;;5.80;99.90;;;;;;5086773;28;20088;-79
2022/04/01 13:15:20;;;;;;;2.33;0.70;;;5.60;99.90;;;;;;5102524;28;20391;-77
2022/04/01 13:17:54;;;;;;;3.97;1.25;;;5.60;99.90;;;;;;5103447;28;20074;-73
2022/04/01 13:20:29;;;;;;;1.77;1.00;;;5.50;99.90;;;;;;5107065;28;20533;-78
2022/04/01 13:22:55;;;;;;;3.20;0.77;;;5.60;99.90;;;;;;5089550;28;20118;-76
2022/04/01 13:25:22;;;;;;;1.20;0.63;;;5.50;99.90;;;;;;5107637;28;20075;-76